»·PEaware :: N415CS KCRQ-L70

N415CS :: KCRQ-L70

FLIGHT INFORMATION

Flight Status: Arrived
Operator: Privately registered:
United States
More flights under this callsign
Pilot: Kyle A. (14988)
Aircraft: CESSNA 182 SKYLANE
(C182)
More flights by this aircraft type
Origin: KCRQ McClellan-Palomar
United States
Destination: L70 Agua Dulce
United States
More flights between these airports :: More routes between these airports
Route: +OCN V23 POPPR SMO125 SMO VNY
File this flight plan on PilotEdge
Remarks:
Altitude:
(Current/Filed)
0ft
Speed:
(Current/Filed)
0kts
Departed: 12-Jan-18 12:30 PM
Arrived: 12-Jan-18 01:28 PM
Distance/Time
Traveled:
97nm/0:57
Distance/Time
To Go:
Arrived

Flight Plot

Page will automatically refresh every two minutes.

Flight plan parsing failed; only flown route is shown


Map Options




Map Legend


Flown Route
Filed Route
Departure Airport
Arrival Airport
Navaid (VOR, NDB)
Fix

Horizontal Profiles

Position Reports

Time Latitude Longitude Heading Altitude Ground
Speed
12-Jan-18 12:19 33.127694 -117.274530 78 334ft 0kts
12-Jan-18 12:20 33.127694 -117.274527 78 334ft 0kts
12-Jan-18 12:21 33.127695 -117.274523 78 334ft 0kts
12-Jan-18 12:22 33.127695 -117.274520 78 334ft 0kts
12-Jan-18 12:23 33.127696 -117.274516 78 334ft 0kts
12-Jan-18 12:24 33.127697 -117.274512 78 334ft 0kts
12-Jan-18 12:25 33.127697 -117.274509 78 334ft 0kts
12-Jan-18 12:26 33.127698 -117.274505 78 334ft 0kts
12-Jan-18 12:27 33.127698 -117.274502 78 334ft 0kts
12-Jan-18 12:28 33.128029 -117.273313 72 334ft 10kts
12-Jan-18 12:29 33.128709 -117.272521 9 334ft 0kts
12-Jan-18 12:30 33.128712 -117.272520 9 334ft 0kts
12-Jan-18 12:31 33.128714 -117.272520 9 334ft 0kts
12-Jan-18 12:32 33.128717 -117.272519 9 334ft 0kts
12-Jan-18 12:33 33.128720 -117.272519 9 334ft 0kts
12-Jan-18 12:34 33.128723 -117.272518 9 334ft 0kts
12-Jan-18 12:35 33.128726 -117.272517 9 334ft 0kts
12-Jan-18 12:36 33.128333 -117.279936 260 389ft 88kts
12-Jan-18 12:37 33.125730 -117.306907 261 1582ft 74kts
12-Jan-18 12:38 33.122612 -117.333328 261 2504ft 85kts
12-Jan-18 12:39 33.117655 -117.365287 262 2999ft 122kts
12-Jan-18 12:40 33.112193 -117.408768 263 3003ft 137kts
12-Jan-18 12:41 33.106671 -117.453232 263 2996ft 133kts
12-Jan-18 12:42 33.101224 -117.496896 263 3000ft 132kts
12-Jan-18 12:43 33.114205 -117.530924 331 3010ft 127kts
12-Jan-18 12:44 33.145826 -117.551091 332 3005ft 132kts
12-Jan-18 12:45 33.178816 -117.571944 332 3000ft 135kts
12-Jan-18 12:46 33.212114 -117.592947 332 2998ft 135kts
12-Jan-18 12:47 33.243414 -117.612712 332 3495ft 114kts
12-Jan-18 12:48 33.269784 -117.629410 332 4290ft 102kts
12-Jan-18 12:49 33.294619 -117.645133 332 5097ft 99kts
12-Jan-18 12:50 33.318553 -117.660254 332 5893ft 95kts
12-Jan-18 12:51 33.345932 -117.677445 332 6013ft 123kts
12-Jan-18 12:52 33.376995 -117.697009 332 6007ft 126kts
12-Jan-18 12:53 33.404473 -117.714365 332 6007ft 126kts
12-Jan-18 12:54 33.435506 -117.733983 332 6012ft 126kts
12-Jan-18 12:55 33.466666 -117.753643 332 6010ft 126kts
12-Jan-18 12:56 33.491948 -117.782447 308 6010ft 129kts
12-Jan-18 12:57 33.514622 -117.815506 313 6010ft 127kts
12-Jan-18 12:58 33.537332 -117.848075 313 6007ft 127kts
12-Jan-18 12:59 33.560039 -117.880623 313 6002ft 127kts
12-Jan-18 13:00 33.578934 -117.907761 313 6000ft 127kts
12-Jan-18 13:01 33.601586 -117.940296 313 6001ft 127kts
12-Jan-18 13:02 33.624321 -117.972976 313 6001ft 127kts
12-Jan-18 13:03 33.644078 -118.001399 313 6000ft 127kts
12-Jan-18 13:04 33.666632 -118.033872 313 6001ft 126kts
12-Jan-18 13:05 33.689223 -118.066426 313 6002ft 126kts
12-Jan-18 13:06 33.711726 -118.098884 313 6002ft 126kts
12-Jan-18 13:07 33.734310 -118.131489 313 6001ft 126kts
12-Jan-18 13:08 33.756571 -118.163656 313 6007ft 126kts
12-Jan-18 13:09 33.779050 -118.196167 313 6007ft 126kts
12-Jan-18 13:10 33.801595 -118.228804 313 6007ft 126kts
12-Jan-18 13:11 33.821289 -118.257578 313 6011ft 134kts
12-Jan-18 13:12 33.846216 -118.291990 324 5997ft 130kts
12-Jan-18 13:13 33.873409 -118.319101 322 5997ft 125kts
12-Jan-18 13:14 33.900262 -118.346058 322 6006ft 129kts
12-Jan-18 13:15 33.928676 -118.374591 322 6002ft 136kts
12-Jan-18 13:16 33.957853 -118.403964 322 5996ft 137kts
12-Jan-18 13:17 33.983732 -118.430027 322 5973ft 131kts
12-Jan-18 13:18 34.011629 -118.456788 339 5970ft 128kts
12-Jan-18 13:19 34.044342 -118.462202 350 5974ft 128kts
12-Jan-18 13:20 34.079385 -118.468007 350 5995ft 127kts
12-Jan-18 13:21 34.114830 -118.473823 350 5996ft 128kts
12-Jan-18 13:22 34.150326 -118.479648 350 6001ft 133kts
12-Jan-18 13:23 34.187726 -118.485785 350 5991ft 134kts
12-Jan-18 13:24 34.224707 -118.490633 8 5989ft 135kts
12-Jan-18 13:25 34.258265 -118.469302 21 6013ft 138kts
12-Jan-18 13:26 34.292659 -118.447814 22 6017ft 142kts
12-Jan-18 13:27 34.323671 -118.428210 22 5997ft 139kts
12-Jan-18 13:28 34.357272 -118.406855 22 5996ft 134kts
12-Jan-18 13:29 34.390114 -118.386085 22 6002ft 133kts
12-Jan-18 13:30 34.423122 -118.365122 22 5931ft 140kts
12-Jan-18 13:31 34.455739 -118.350633 5 4822ft 107kts
12-Jan-18 13:32 34.485283 -118.342292 40 3238ft 107kts
12-Jan-18 13:33 34.499885 -118.319022 53 2625ft 61kts
12-Jan-18 13:34 34.503767 -118.313571 52 2605ft 14kts
12-Jan-18 13:35 34.504444 -118.312500 53 2605ft 0kts
12-Jan-18 13:36 34.504513 -118.312706 145 2605ft 0kts
12-Jan-18 13:37 34.504513 -118.312706 145 2605ft 0kts
12-Jan-18 13:38 34.504513 -118.312706 145 2605ft 0kts
12-Jan-18 13:39 34.504513 -118.312706 145 2605ft 0kts
12-Jan-18 13:40 34.504513 -118.312706 145 2605ft 0kts
12-Jan-18 13:41 34.504513 -118.312706 145 2605ft 0kts
12-Jan-18 13:42 34.504513 -118.312706 145 2605ft 0kts
12-Jan-18 13:43 34.504513 -118.312706 145 2605ft 0kts
12-Jan-18 13:44 34.504513 -118.312706 145 2605ft 0kts
12-Jan-18 13:45 34.504513 -118.312706 145 2605ft 0kts
12-Jan-18 13:46 34.504513 -118.312706 145 2605ft 0kts
12-Jan-18 13:47 34.504513 -118.312706 145 2605ft 0kts
12-Jan-18 13:48 34.504513 -118.312706 145 2605ft 0kts

Navigation Log

Ident Type
Flight plan parsing failed, navigation log unavailable